Time;durP1;ratioP1;P1;durP2;ratioP2;P2;SDS_P1;SDS_P2;PMS_P1;PMS_P2;Temp;Humidity;BMP_temperature;BMP_pressure;BME280_temperature;BME280_humidity;BME280_pressure;Samples;Min_cycle;Max_cycle;Signal;HPM_P1;HPM_P2
2021/09/27 00:00:19;;;;;;;;;;;;;;;;;;1017995;29;998;-19
2021/09/27 00:00:54;;;;;;;;;;;;;;;;;;1018087;29;963;-19
2021/09/27 00:01:25;;;;;;;;;;;;;;;;;;1015860;29;1122;-20
2021/09/27 00:01:56;;;;;;;;;;;;;;;;;;1018018;29;1020;-19
2021/09/27 00:02:27;;;;;;;;;;;;;;;;;;1017891;29;1442;-20
2021/09/27 00:02:57;;;;;;;;;;;;;;;;;;1017950;29;1127;-18
2021/09/27 00:03:29;;;;;;;;;;;;;;;;;;1018071;29;1339;-19
2021/09/27 00:03:59;;;;;;;;;;;;;;;;;;1029554;28;1594;-19
2021/09/27 00:04:30;;;;;;;;;;;;;;;;;;1029826;28;1233;-21
2021/09/27 00:05:00;;;;;;;;;;;;;;;;;;1029855;28;1385;-18
2021/09/27 00:05:31;;;;;;;;;;;;;;;;;;1029640;28;1126;-19
2021/09/27 00:06:03;;;;;;;;;;;;;;;;;;1022911;28;1265;-19
2021/09/27 00:06:34;;;;;;;;;;;;;;;;;;1022499;28;1106;-19
2021/09/27 00:07:05;;;;;;;;;;;;;;;;;;1026033;28;1049;-19
2021/09/27 00:07:35;;;;;;;;;;;;;;;;;;1029829;28;959;-19
2021/09/27 00:08:06;;;;;;;;;;;;;;;;;;1029687;28;1566;-21
2021/09/27 00:08:37;;;;;;;;;;;;;;;;;;1025310;28;1226;-19
2021/09/27 00:09:08;;;;;;;;;;;;;;;;;;1025713;28;1130;-19
2021/09/27 00:09:39;;;;;;;;;;;;;;;;;;1017789;29;1075;-20
2021/09/27 00:10:11;;;;;;;;;;;;;;;;;;1021919;29;1057;-18
2021/09/27 00:10:49;;;;;;;;;;;;;;;;;;1020780;29;1914;-19
2021/09/27 00:11:22;;;;;;;;;;;;;;;;;;1023098;28;1094;-19
2021/09/27 00:11:52;;;;;;;;;;;;;;;;;;1022563;28;1525;-19
2021/09/27 00:12:23;;;;;;;;;;;;;;;;;;1019120;29;1208;-20
2021/09/27 00:12:54;;;;;;;;;;;;;;;;;;1021924;29;974;-19
2021/09/27 00:13:26;;;;;;;;;;;;;;;;;;1021923;29;1236;-20
2021/09/27 00:13:59;;;;;;;;;;;;;;;;;;1022092;29;1012;-19
2021/09/27 00:14:30;;;;;;;;;;;;;;;;;;1022568;28;1032;-19
2021/09/27 00:15:02;;;;;;;;;;;;;;;;;;1024638;28;1368;-19
2021/09/27 00:15:34;;;;;;;;;;;;;;;;;;1025896;28;1057;-21
2021/09/27 00:16:06;;;;;;;;;;;;;;;;;;1026023;28;1198;-19
2021/09/27 00:16:36;;;;;;;;;;;;;;;;;;1025370;28;1107;-19
2021/09/27 00:17:07;;;;;;;;;;;;;;;;;;1021876;29;802;-20
2021/09/27 00:17:38;;;;;;;;;;;;;;;;;;1025719;28;1519;-18
2021/09/27 00:18:09;;;;;;;;;;;;;;;;;;1026035;28;1028;-28
2021/09/27 00:18:39;;;;;;;;;;;;;;;;;;1025746;28;1245;-19
2021/09/27 00:19:10;;;;;;;;;;;;;;;;;;1026041;28;1110;-19
2021/09/27 00:19:41;;;;;;;;;;;;;;;;;;1025853;28;1027;-19
2021/09/27 00:20:11;;;;;;;;;;;;;;;;;;1025821;28;1308;-19
2021/09/27 00:20:46;;;;;;;;;;;;;;;;;;1026044;28;892;-19
2021/09/27 00:21:22;;;;;;;;;;;;;;;;;;1024094;28;1449;-19
2021/09/27 00:21:54;;;;;;;;;;;;;;;;;;1025323;28;1204;-20
2021/09/27 00:22:24;;;;;;;;;;;;;;;;;;1025851;28;1440;-19
2021/09/27 00:22:55;;;;;;;;;;;;;;;;;;1024776;28;1238;-20
2021/09/27 00:23:28;;;;;;;;;;;;;;;;;;1018322;29;1104;-18
2021/09/27 00:23:59;;;;;;;;;;;;;;;;;;1021528;29;1560;-19
2021/09/27 00:24:30;;;;;;;;;;;;;;;;;;1021612;29;1374;-22
2021/09/27 00:25:00;;;;;;;;;;;;;;;;;;1021921;28;1278;-19
2021/09/27 00:25:31;;;;;;;;;;;;;;;;;;1025717;28;1105;-19
2021/09/27 00:26:02;;;;;;;;;;;;;;;;;;1023511;28;2622;-18
2021/09/27 00:26:33;;;;;;;;;;;;;;;;;;1014045;29;1050;-20
2021/09/27 00:27:04;;;;;;;;;;;;;;;;;;1021979;29;1096;-19
2021/09/27 00:27:35;;;;;;;;;;;;;;;;;;1021783;29;1019;-19
2021/09/27 00:28:06;;;;;;;;;;;;;;;;;;1013986;29;1741;-18
2021/09/27 00:28:37;;;;;;;;;;;;;;;;;;1021173;29;1164;-19
2021/09/27 00:29:07;;;;;;;;;;;;;;;;;;1010379;29;973;-19
2021/09/27 00:29:38;;;;;;;;;;;;;;;;;;1014200;29;1032;-19
2021/09/27 00:30:10;;;;;;;;;;;;;;;;;;1025852;28;1092;-19
2021/09/27 00:30:41;;;;;;;;;;;;;;;;;;1021120;29;1981;-19
2021/09/27 00:31:12;;;;;;;;;;;;;;;;;;1021862;29;1009;-19
2021/09/27 00:31:43;;;;;;;;;;;;;;;;;;1021037;29;1008;-19
2021/09/27 00:32:14;;;;;;;;;;;;;;;;;;1013885;29;1073;-19
2021/09/27 00:32:45;;;;;;;;;;;;;;;;;;1013913;29;1123;-20
2021/09/27 00:33:16;;;;;;;;;;;;;;;;;;1009682;29;1479;-19
2021/09/27 00:33:47;;;;;;;;;;;;;;;;;;1010362;29;1342;-19
2021/09/27 00:34:18;;;;;;;;;;;;;;;;;;1013925;29;1060;-19
2021/09/27 00:34:49;;;;;;;;;;;;;;;;;;1013916;29;1275;-19
2021/09/27 00:35:22;;;;;;;;;;;;;;;;;;1013832;29;1147;-19
2021/09/27 00:35:53;;;;;;;;;;;;;;;;;;1013610;29;1326;-20
2021/09/27 00:36:24;;;;;;;;;;;;;;;;;;1018111;29;3649;-19
2021/09/27 00:36:54;;;;;;;;;;;;;;;;;;1022541;28;1028;-18
2021/09/27 00:37:25;;;;;;;;;;;;;;;;;;1029496;28;1414;-19
2021/09/27 00:37:56;;;;;;;;;;;;;;;;;;1033909;28;1020;-19
2021/09/27 00:38:28;;;;;;;;;;;;;;;;;;1033579;28;3584;-20
2021/09/27 00:38:59;;;;;;;;;;;;;;;;;;1029969;28;1222;-19
2021/09/27 00:39:29;;;;;;;;;;;;;;;;;;1022980;29;1099;-19
2021/09/27 00:40:00;;;;;;;;;;;;;;;;;;1022763;29;1541;-19
2021/09/27 00:40:34;;;;;;;;;;;;;;;;;;1022904;28;1139;-19
2021/09/27 00:41:06;;;;;;;;;;;;;;;;;;1023728;28;862;-19
2021/09/27 00:41:36;;;;;;;;;;;;;;;;;;1023366;28;1252;-18
2021/09/27 00:42:08;;;;;;;;;;;;;;;;;;1030940;28;1125;-19
2021/09/27 00:42:38;;;;;;;;;;;;;;;;;;1028284;28;1555;-19
2021/09/27 00:43:09;;;;;;;;;;;;;;;;;;1022755;29;1134;-26
2021/09/27 00:43:41;;;;;;;;;;;;;;;;;;1022477;29;1005;-19
2021/09/27 00:44:12;;;;;;;;;;;;;;;;;;1010637;29;1097;-19
2021/09/27 00:44:42;;;;;;;;;;;;;;;;;;1011250;29;1146;-19
2021/09/27 00:45:14;;;;;;;;;;;;;;;;;;1010803;29;1114;-20
2021/09/27 00:45:47;;;;;;;;;;;;;;;;;;1011325;29;2298;-20
2021/09/27 00:46:20;;;;;;;;;;;;;;;;;;1018530;29;1251;-20
2021/09/27 00:46:52;;;;;;;;;;;;;;;;;;1015361;29;1225;-19
2021/09/27 00:47:23;;;;;;;;;;;;;;;;;;1018830;29;1066;-18
2021/09/27 00:47:54;;;;;;;;;;;;;;;;;;1018049;29;1325;-19
2021/09/27 00:48:25;;;;;;;;;;;;;;;;;;1015004;29;1507;-20
2021/09/27 00:48:55;;;;;;;;;;;;;;;;;;1018919;29;1088;-19
2021/09/27 00:49:26;;;;;;;;;;;;;;;;;;1018029;29;1376;-19
2021/09/27 00:49:56;;;;;;;;;;;;;;;;;;1018697;29;1292;-19
2021/09/27 00:50:29;;;;;;;;;;;;;;;;;;1019275;29;1597;-19
2021/09/27 00:51:02;;;;;;;;;;;;;;;;;;1030124;28;1910;-19
2021/09/27 00:51:35;;;;;;;;;;;;;;;;;;1018515;29;997;-19
2021/09/27 00:52:06;;;;;;;;;;;;;;;;;;1018221;29;1352;-18
2021/09/27 00:52:37;;;;;;;;;;;;;;;;;;1017202;29;1562;-18
2021/09/27 00:53:11;;;;;;;;;;;;;;;;;;1012128;29;991;-19
2021/09/27 00:53:44;;;;;;;;;;;;;;;;;;1022297;29;1044;-18
2021/09/27 00:54:23;;;;;;;;;;;;;;;;;;1022416;29;1046;-18
2021/09/27 00:54:54;;;;;;;;;;;;;;;;;;1022266;29;1302;-18
2021/09/27 00:55:25;;;;;;;;;;;;;;;;;;1022751;29;1348;-18
2021/09/27 00:55:56;;;;;;;;;;;;;;;;;;1021525;28;937;-19
2021/09/27 00:56:29;;;;;;;;;;;;;;;;;;1018863;28;1017;-20
2021/09/27 00:57:03;;;;;;;;;;;;;;;;;;1019037;29;1235;-19
2021/09/27 00:57:34;;;;;;;;;;;;;;;;;;1018499;29;1473;-20
2021/09/27 00:58:04;;;;;;;;;;;;;;;;;;1026629;28;1306;-19
2021/09/27 00:58:35;;;;;;;;;;;;;;;;;;1026525;28;1081;-19
2021/09/27 00:59:07;;;;;;;;;;;;;;;;;;1034487;28;1690;-19
2021/09/27 00:59:39;;;;;;;;;;;;;;;;;;1034203;28;957;-20
2021/09/27 01:00:13;;;;;;;;;;;;;;;;;;1027274;28;1479;-19
2021/09/27 01:00:43;;;;;;;;;;;;;;;;;;1034701;28;1006;-19
2021/09/27 01:01:14;;;;;;;;;;;;;;;;;;1034803;28;1082;-19
2021/09/27 01:01:45;;;;;;;;;;;;;;;;;;1034122;28;1506;-19
2021/09/27 01:02:16;;;;;;;;;;;;;;;;;;1030536;28;1159;-20
2021/09/27 01:02:46;;;;;;;;;;;;;;;;;;1026055;28;1532;-19
2021/09/27 01:03:18;;;;;;;;;;;;;;;;;;1026263;28;1272;-20
2021/09/27 01:03:50;;;;;;;;;;;;;;;;;;1030552;28;1068;-19
2021/09/27 01:04:20;;;;;;;;;;;;;;;;;;1033918;28;1300;-20
2021/09/27 01:04:52;;;;;;;;;;;;;;;;;;1022320;29;1076;-18
2021/09/27 01:05:23;;;;;;;;;;;;;;;;;;1018328;29;1487;-19
2021/09/27 01:05:54;;;;;;;;;;;;;;;;;;1018171;29;1274;-19
2021/09/27 01:06:39;;;;;;;;;;;;;;;;;;1018706;28;1021;-18
2021/09/27 01:07:09;;;;;;;;;;;;;;;;;;1019252;29;1207;-18
2021/09/27 01:07:43;;;;;;;;;;;;;;;;;;1026703;28;991;-20
2021/09/27 01:08:37;;;;;;;;;;;;;;;;;;1026500;28;1208;-19
2021/09/27 01:09:19;;;;;;;;;;;;;;;;;;1026131;28;1239;-21
2021/09/27 01:09:52;;;;;;;;;;;;;;;;;;1022517;29;1145;-19
2021/09/27 01:10:29;;;;;;;;;;;;;;;;;;1022759;29;1044;-19
2021/09/27 01:10:59;;;;;;;;;;;;;;;;;;1020389;29;1910;-20
2021/09/27 01:11:36;;;;;;;;;;;;;;;;;;1019573;29;941;-19
2021/09/27 01:12:14;;;;;;;;;;;;;;;;;;1030410;28;1042;-19
2021/09/27 01:12:53;;;;;;;;;;;;;;;;;;1026576;28;1369;-19
2021/09/27 01:13:34;;;;;;;;;;;;;;;;;;1026560;28;1130;-19
2021/09/27 01:14:19;;;;;;;;;;;;;;;;;;1020453;28;937;-19
2021/09/27 01:15:15;;;;;;;;;;;;;;;;;;1019439;29;993;-19
2021/09/27 01:15:45;;;;;;;;;;;;;;;;;;1030132;28;1368;-19
2021/09/27 01:16:34;;;;;;;;;;;;;;;;;;1030839;28;1071;-19
2021/09/27 01:17:23;;;;;;;;;;;;;;;;;;1030646;28;1063;-19
2021/09/27 01:18:02;;;;;;;;;;;;;;;;;;1022367;28;1338;-19
2021/09/27 01:18:38;;;;;;;;;;;;;;;;;;1022546;29;892;-19
2021/09/27 01:19:17;;;;;;;;;;;;;;;;;;1022093;29;1589;-19
2021/09/27 01:19:47;;;;;;;;;;;;;;;;;;1023095;28;872;-18
2021/09/27 01:20:30;;;;;;;;;;;;;;;;;;1023573;29;918;-21
2021/09/27 01:21:18;;;;;;;;;;;;;;;;;;1023547;29;799;-20
2021/09/27 01:21:58;;;;;;;;;;;;;;;;;;1023242;29;1290;-18
2021/09/27 01:22:40;;;;;;;;;;;;;;;;;;1020201;29;2570;-19
2021/09/27 01:23:32;;;;;;;;;;;;;;;;;;1019367;29;977;-19
2021/09/27 01:24:12;;;;;;;;;;;;;;;;;;1030015;28;1336;-19
2021/09/27 01:24:57;;;;;;;;;;;;;;;;;;1025859;28;1572;-19
2021/09/27 01:25:45;;;;;;;;;;;;;;;;;;1026560;28;1028;-20
2021/09/27 01:26:28;;;;;;;;;;;;;;;;;;1022566;29;1001;-18
2021/09/27 01:27:07;;;;;;;;;;;;;;;;;;1030615;28;1097;-19
2021/09/27 01:27:46;;;;;;;;;;;;;;;;;;1030538;28;862;-18
2021/09/27 01:28:19;;;;;;;;;;;;;;;;;;1030867;28;866;-18
2021/09/27 01:28:59;;;;;;;;;;;;;;;;;;1025853;28;1489;-19
2021/09/27 01:29:47;;;;;;;;;;;;;;;;;;1034244;28;1160;-19
2021/09/27 01:30:17;;;;;;;;;;;;;;;;;;1034631;28;1120;-19
2021/09/27 01:31:06;;;;;;;;;;;;;;;;;;1034546;28;1985;-19
2021/09/27 01:31:39;;;;;;;;;;;;;;;;;;1023298;28;946;-19
2021/09/27 01:32:16;;;;;;;;;;;;;;;;;;1030542;28;879;-19
2021/09/27 01:32:48;;;;;;;;;;;;;;;;;;1030355;28;1207;-19
2021/09/27 01:33:35;;;;;;;;;;;;;;;;;;1030592;28;1088;-19
2021/09/27 01:34:10;;;;;;;;;;;;;;;;;;1027271;28;1725;-19
2021/09/27 01:34:58;;;;;;;;;;;;;;;;;;1026788;28;1051;-19
2021/09/27 01:35:29;;;;;;;;;;;;;;;;;;1022799;28;1300;-19
2021/09/27 01:36:12;;;;;;;;;;;;;;;;;;1023180;28;3612;-19
2021/09/27 01:36:49;;;;;;;;;;;;;;;;;;1023260;28;983;-20
2021/09/27 01:37:22;;;;;;;;;;;;;;;;;;1023318;28;891;-19
2021/09/27 01:38:08;;;;;;;;;;;;;;;;;;1023266;28;1022;-19
2021/09/27 01:38:48;;;;;;;;;;;;;;;;;;1030027;28;3642;-19
2021/09/27 01:39:28;;;;;;;;;;;;;;;;;;1018590;29;1095;-19
2021/09/27 01:39:58;;;;;;;;;;;;;;;;;;1018274;29;1626;-19
2021/09/27 01:40:29;;;;;;;;;;;;;;;;;;1012219;29;1023;-19
2021/09/27 01:41:02;;;;;;;;;;;;;;;;;;1013408;29;1140;-19
2021/09/27 01:41:44;;;;;;;;;;;;;;;;;;1014473;29;1322;-20
2021/09/27 01:42:33;;;;;;;;;;;;;;;;;;1018611;28;1286;-20
2021/09/27 01:43:06;;;;;;;;;;;;;;;;;;1026593;28;1336;-18
2021/09/27 01:43:43;;;;;;;;;;;;;;;;;;1030207;28;1252;-18
2021/09/27 01:44:42;;;;;;;;;;;;;;;;;;1030597;28;1054;-19
2021/09/27 01:45:19;;;;;;;;;;;;;;;;;;1018668;29;1079;-19
2021/09/27 01:46:08;;;;;;;;;;;;;;;;;;1018421;29;2380;-19
2021/09/27 01:46:41;;;;;;;;;;;;;;;;;;1014032;29;1322;-19
2021/09/27 01:47:16;;;;;;;;;;;;;;;;;;1020150;29;1173;-19
2021/09/27 01:48:02;;;;;;;;;;;;;;;;;;1022265;29;1310;-19
2021/09/27 01:49:05;;;;;;;;;;;;;;;;;;1025638;28;844;-19
2021/09/27 01:49:48;;;;;;;;;;;;;;;;;;1008076;29;1142;-19
2021/09/27 01:50:28;;;;;;;;;;;;;;;;;;1006352;29;1200;-20
2021/09/27 01:51:00;;;;;;;;;;;;;;;;;;1018456;29;1907;-19
2021/09/27 01:51:36;;;;;;;;;;;;;;;;;;1024632;28;954;-19
2021/09/27 01:52:28;;;;;;;;;;;;;;;;;;1026636;28;995;-19
2021/09/27 01:53:13;;;;;;;;;;;;;;;;;;1023684;28;934;-19
2021/09/27 01:53:48;;;;;;;;;;;;;;;;;;1022615;28;1531;-19
2021/09/27 01:54:22;;;;;;;;;;;;;;;;;;1026299;28;1017;-19
2021/09/27 01:55:00;;;;;;;;;;;;;;;;;;1026434;28;1189;-19
2021/09/27 01:55:30;;;;;;;;;;;;;;;;;;1026432;28;905;-20
2021/09/27 01:56:20;;;;;;;;;;;;;;;;;;1025463;28;918;-18
2021/09/27 01:56:57;;;;;;;;;;;;;;;;;;1022497;28;1184;-19
2021/09/27 01:57:37;;;;;;;;;;;;;;;;;;1022544;28;1552;-18
2021/09/27 01:58:12;;;;;;;;;;;;;;;;;;1022868;29;1330;-19
2021/09/27 01:58:56;;;;;;;;;;;;;;;;;;1023689;28;1446;-19
2021/09/27 01:59:39;;;;;;;;;;;;;;;;;;1034620;28;1079;-18
2021/09/27 02:00:25;;;;;;;;;;;;;;;;;;1034512;28;1393;-19
2021/09/27 02:00:59;;;;;;;;;;;;;;;;;;1038848;28;1040;-19
2021/09/27 02:01:33;;;;;;;;;;;;;;;;;;1030471;28;1085;-19
2021/09/27 02:02:27;;;;;;;;;;;;;;;;;;1034552;28;1036;-20
2021/09/27 02:03:16;;;;;;;;;;;;;;;;;;1026238;28;1156;-19
2021/09/27 02:03:49;;;;;;;;;;;;;;;;;;1022400;28;1028;-19
2021/09/27 02:04:25;;;;;;;;;;;;;;;;;;1022431;29;1117;-18
2021/09/27 02:05:11;;;;;;;;;;;;;;;;;;1022634;29;904;-19
2021/09/27 02:06:01;;;;;;;;;;;;;;;;;;1033473;28;1034;-20
2021/09/27 02:06:36;;;;;;;;;;;;;;;;;;1030353;28;1012;-19
2021/09/27 02:07:06;;;;;;;;;;;;;;;;;;1030441;28;1103;-19
2021/09/27 02:07:45;;;;;;;;;;;;;;;;;;1024155;28;954;-19
2021/09/27 02:08:18;;;;;;;;;;;;;;;;;;1028193;28;1032;-19
2021/09/27 02:08:56;;;;;;;;;;;;;;;;;;1026103;28;1079;-19
2021/09/27 02:09:45;;;;;;;;;;;;;;;;;;1026300;28;1062;-19
2021/09/27 02:10:19;;;;;;;;;;;;;;;;;;1014740;29;1577;-19
2021/09/27 02:10:53;;;;;;;;;;;;;;;;;;1018304;29;1980;-19
2021/09/27 02:11:23;;;;;;;;;;;;;;;;;;1021881;29;1101;-19
2021/09/27 02:12:06;;;;;;;;;;;;;;;;;;1022269;28;1539;-18
2021/09/27 02:12:44;;;;;;;;;;;;;;;;;;1034286;28;1064;-19
2021/09/27 02:13:17;;;;;;;;;;;;;;;;;;1034457;28;1481;-19
2021/09/27 02:14:01;;;;;;;;;;;;;;;;;;1034087;28;1250;-19
2021/09/27 02:14:46;;;;;;;;;;;;;;;;;;1024079;28;1109;-19
2021/09/27 02:15:20;;;;;;;;;;;;;;;;;;1018611;29;1466;-18
2021/09/27 02:16:04;;;;;;;;;;;;;;;;;;1018228;29;1233;-28
2021/09/27 02:16:55;;;;;;;;;;;;;;;;;;1030187;28;1254;-19
2021/09/27 02:17:38;;;;;;;;;;;;;;;;;;1018024;29;1362;-18
2021/09/27 02:18:22;;;;;;;;;;;;;;;;;;1017887;29;1363;-19
2021/09/27 02:18:53;;;;;;;;;;;;;;;;;;1019011;28;954;-19
2021/09/27 02:19:29;;;;;;;;;;;;;;;;;;1019118;29;1134;-18
2021/09/27 02:20:03;;;;;;;;;;;;;;;;;;1019234;29;1051;-19
2021/09/27 02:20:37;;;;;;;;;;;;;;;;;;1019228;29;886;-19
2021/09/27 02:21:11;;;;;;;;;;;;;;;;;;1019037;29;1499;-20
2021/09/27 02:21:44;;;;;;;;;;;;;;;;;;1019023;28;1064;-19
2021/09/27 02:22:14;;;;;;;;;;;;;;;;;;1019179;29;1219;-19
2021/09/27 02:22:49;;;;;;;;;;;;;;;;;;1018783;29;1290;-20
2021/09/27 02:23:19;;;;;;;;;;;;;;;;;;1019395;29;1097;-18
2021/09/27 02:23:53;;;;;;;;;;;;;;;;;;1030024;28;1158;-18
2021/09/27 02:24:41;;;;;;;;;;;;;;;;;;1035784;28;1242;-19
2021/09/27 02:25:23;;;;;;;;;;;;;;;;;;1038693;28;1109;-19
2021/09/27 02:25:54;;;;;;;;;;;;;;;;;;1034189;28;1160;-19
2021/09/27 02:26:24;;;;;;;;;;;;;;;;;;1034612;28;1197;-19
2021/09/27 02:26:55;;;;;;;;;;;;;;;;;;1034528;28;996;-18
2021/09/27 02:27:26;;;;;;;;;;;;;;;;;;1021976;29;1131;-19
2021/09/27 02:27:58;;;;;;;;;;;;;;;;;;1018402;29;1104;-19
2021/09/27 02:28:29;;;;;;;;;;;;;;;;;;1018347;29;1065;-20
2021/09/27 02:29:00;;;;;;;;;;;;;;;;;;1022998;28;1056;-18
2021/09/27 02:29:30;;;;;;;;;;;;;;;;;;1026173;28;1342;-19
2021/09/27 02:30:01;;;;;;;;;;;;;;;;;;1026477;28;1187;-18
2021/09/27 02:30:41;;;;;;;;;;;;;;;;;;1034128;28;1248;-20
2021/09/27 02:31:30;;;;;;;;;;;;;;;;;;1034440;28;975;-19
2021/09/27 02:32:04;;;;;;;;;;;;;;;;;;1034631;28;908;-21
2021/09/27 02:32:50;;;;;;;;;;;;;;;;;;1026957;28;944;-26
2021/09/27 02:33:33;;;;;;;;;;;;;;;;;;1027244;28;1055;-19
2021/09/27 02:34:09;;;;;;;;;;;;;;;;;;1034289;28;1102;-18
2021/09/27 02:34:58;;;;;;;;;;;;;;;;;;1034361;28;952;-19
2021/09/27 02:35:51;;;;;;;;;;;;;;;;;;1026066;28;1444;-19
2021/09/27 02:36:21;;;;;;;;;;;;;;;;;;1017910;29;3653;-19
2021/09/27 02:36:56;;;;;;;;;;;;;;;;;;1018150;29;1404;-19
2021/09/27 02:37:37;;;;;;;;;;;;;;;;;;1024893;28;1583;-20
2021/09/27 02:38:14;;;;;;;;;;;;;;;;;;1026341;28;1257;-19
2021/09/27 02:38:53;;;;;;;;;;;;;;;;;;1025661;28;3400;-18
2021/09/27 02:39:24;;;;;;;;;;;;;;;;;;1019080;29;1072;-20
2021/09/27 02:40:01;;;;;;;;;;;;;;;;;;1018173;29;1980;-19
2021/09/27 02:40:51;;;;;;;;;;;;;;;;;;1021898;29;1532;-20
2021/09/27 02:41:35;;;;;;;;;;;;;;;;;;1018900;29;1299;-19
2021/09/27 02:42:24;;;;;;;;;;;;;;;;;;1022094;29;984;-19
2021/09/27 02:42:59;;;;;;;;;;;;;;;;;;1018062;29;1396;-19
2021/09/27 02:43:29;;;;;;;;;;;;;;;;;;1022715;28;1176;-18
2021/09/27 02:44:00;;;;;;;;;;;;;;;;;;1023047;28;1147;-18
2021/09/27 02:44:30;;;;;;;;;;;;;;;;;;1022323;28;1631;-20
2021/09/27 02:45:01;;;;;;;;;;;;;;;;;;1022903;28;1080;-18
2021/09/27 02:45:34;;;;;;;;;;;;;;;;;;1023142;28;903;-19
2021/09/27 02:46:04;;;;;;;;;;;;;;;;;;1029637;28;2286;-19
2021/09/27 02:46:43;;;;;;;;;;;;;;;;;;1030384;28;1099;-19
2021/09/27 02:47:17;;;;;;;;;;;;;;;;;;1022069;29;1170;-19
2021/09/27 02:47:53;;;;;;;;;;;;;;;;;;1020479;29;1100;-18
2021/09/27 02:48:38;;;;;;;;;;;;;;;;;;1018473;29;1044;-19
2021/09/27 02:49:11;;;;;;;;;;;;;;;;;;1026310;28;1039;-19
2021/09/27 02:49:45;;;;;;;;;;;;;;;;;;1026166;28;904;-19
2021/09/27 02:50:21;;;;;;;;;;;;;;;;;;1026514;28;1001;-19
2021/09/27 02:50:53;;;;;;;;;;;;;;;;;;1014282;29;1934;-19
2021/09/27 02:51:24;;;;;;;;;;;;;;;;;;1013539;29;1527;-25
2021/09/27 02:51:59;;;;;;;;;;;;;;;;;;1013893;29;1485;-19
2021/09/27 02:52:29;;;;;;;;;;;;;;;;;;1016337;29;1112;-19
2021/09/27 02:53:00;;;;;;;;;;;;;;;;;;1026129;28;1053;-19
2021/09/27 02:53:32;;;;;;;;;;;;;;;;;;1026132;28;1041;-20
2021/09/27 02:54:03;;;;;;;;;;;;;;;;;;1014178;29;1060;-19
2021/09/27 02:54:35;;;;;;;;;;;;;;;;;;1010129;29;1069;-18
2021/09/27 02:55:10;;;;;;;;;;;;;;;;;;1006332;29;932;-19
2021/09/27 02:55:55;;;;;;;;;;;;;;;;;;1008282;29;1174;-19
2021/09/27 02:56:29;;;;;;;;;;;;;;;;;;1019897;29;1185;-19
2021/09/27 02:57:08;;;;;;;;;;;;;;;;;;1022821;29;967;-18
2021/09/27 02:58:11;;;;;;;;;;;;;;;;;;1022721;28;1151;-19
2021/09/27 02:59:02;;;;;;;;;;;;;;;;;;1018695;29;1447;-18
2021/09/27 02:59:47;;;;;;;;;;;;;;;;;;1021852;28;1415;-20
2021/09/27 03:00:30;;;;;;;;;;;;;;;;;;1030935;28;965;-19
2021/09/27 03:01:07;;;;;;;;;;;;;;;;;;1030713;28;921;-19
2021/09/27 03:01:39;;;;;;;;;;;;;;;;;;1030458;28;921;-20
2021/09/27 03:02:14;;;;;;;;;;;;;;;;;;1028087;28;1052;-18
2021/09/27 03:03:00;;;;;;;;;;;;;;;;;;1023450;28;1445;-19
2021/09/27 03:03:46;;;;;;;;;;;;;;;;;;1026000;28;1101;-20
2021/09/27 03:04:23;;;;;;;;;;;;;;;;;;1022243;29;1104;-19
2021/09/27 03:05:09;;;;;;;;;;;;;;;;;;1021993;29;1509;-19
2021/09/27 03:05:58;;;;;;;;;;;;;;;;;;1021952;29;1205;-19
2021/09/27 03:06:40;;;;;;;;;;;;;;;;;;1022058;29;1109;-19
2021/09/27 03:07:17;;;;;;;;;;;;;;;;;;1022194;29;980;-19
2021/09/27 03:08:06;;;;;;;;;;;;;;;;;;1026014;28;1122;-19
2021/09/27 03:08:37;;;;;;;;;;;;;;;;;;1029724;28;1357;-19
2021/09/27 03:09:31;;;;;;;;;;;;;;;;;;1030253;28;1087;-19
2021/09/27 03:10:12;;;;;;;;;;;;;;;;;;1030000;28;938;-19
2021/09/27 03:10:47;;;;;;;;;;;;;;;;;;1026081;28;1968;-19
2021/09/27 03:11:24;;;;;;;;;;;;;;;;;;1018485;29;1011;-19
2021/09/27 03:12:13;;;;;;;;;;;;;;;;;;1020836;29;1017;-19
2021/09/27 03:12:43;;;;;;;;;;;;;;;;;;1018730;29;847;-19
2021/09/27 03:13:21;;;;;;;;;;;;;;;;;;1021966;29;1031;-20
2021/09/27 03:14:07;;;;;;;;;;;;;;;;;;1022463;28;1398;-20
2021/09/27 03:14:43;;;;;;;;;;;;;;;;;;1023053;28;882;-19
2021/09/27 03:15:23;;;;;;;;;;;;;;;;;;1022680;28;1625;-18
2021/09/27 03:16:19;;;;;;;;;;;;;;;;;;1029974;28;1377;-18
2021/09/27 03:17:07;;;;;;;;;;;;;;;;;;1030183;28;1058;-18
2021/09/27 03:17:45;;;;;;;;;;;;;;;;;;1028507;28;1193;-19
2021/09/27 03:18:17;;;;;;;;;;;;;;;;;;1030097;28;961;-19
2021/09/27 03:18:50;;;;;;;;;;;;;;;;;;1029896;28;1666;-19
2021/09/27 03:19:23;;;;;;;;;;;;;;;;;;1030394;28;884;-19
2021/09/27 03:19:59;;;;;;;;;;;;;;;;;;1028631;28;1026;-18
2021/09/27 03:20:33;;;;;;;;;;;;;;;;;;1022007;29;1592;-19
2021/09/27 03:21:15;;;;;;;;;;;;;;;;;;1023041;28;1136;-19
2021/09/27 03:21:55;;;;;;;;;;;;;;;;;;1022946;29;1206;-18
2021/09/27 03:22:38;;;;;;;;;;;;;;;;;;1022683;29;1037;-20
2021/09/27 03:23:17;;;;;;;;;;;;;;;;;;1022893;29;910;-19
2021/09/27 03:23:57;;;;;;;;;;;;;;;;;;1022307;28;1585;-20
2021/09/27 03:24:33;;;;;;;;;;;;;;;;;;1024297;28;1521;-18
2021/09/27 03:25:23;;;;;;;;;;;;;;;;;;1025915;28;1439;-18
2021/09/27 03:25:53;;;;;;;;;;;;;;;;;;1030142;28;1010;-19
2021/09/27 03:26:38;;;;;;;;;;;;;;;;;;1026048;28;1239;-20
2021/09/27 03:27:08;;;;;;;;;;;;;;;;;;1017870;29;1629;-19
2021/09/27 03:27:49;;;;;;;;;;;;;;;;;;1018131;29;1336;-18
2021/09/27 03:28:38;;;;;;;;;;;;;;;;;;1024581;28;1225;-18
2021/09/27 03:29:11;;;;;;;;;;;;;;;;;;1022165;28;1017;-19
2021/09/27 03:30:05;;;;;;;;;;;;;;;;;;1025994;28;1040;-19
2021/09/27 03:30:44;;;;;;;;;;;;;;;;;;1015190;28;1329;-19
2021/09/27 03:31:20;;;;;;;;;;;;;;;;;;1029333;28;1242;-19
2021/09/27 03:31:56;;;;;;;;;;;;;;;;;;1018607;29;1423;-18
2021/09/27 03:32:33;;;;;;;;;;;;;;;;;;1018923;29;831;-20
2021/09/27 03:33:19;;;;;;;;;;;;;;;;;;1026226;28;1039;-19
2021/09/27 03:34:06;;;;;;;;;;;;;;;;;;1026210;28;921;-19
2021/09/27 03:34:42;;;;;;;;;;;;;;;;;;1029711;28;1027;-19
2021/09/27 03:35:17;;;;;;;;;;;;;;;;;;1021761;28;1328;-19
2021/09/27 03:36:04;;;;;;;;;;;;;;;;;;1022090;29;1074;-19
2021/09/27 03:36:53;;;;;;;;;;;;;;;;;;1019288;29;1063;-19
2021/09/27 03:37:29;;;;;;;;;;;;;;;;;;1025698;28;1374;-20
2021/09/27 03:37:59;;;;;;;;;;;;;;;;;;1026190;28;1347;-19
2021/09/27 03:38:37;;;;;;;;;;;;;;;;;;1026923;28;3826;-19
2021/09/27 03:39:13;;;;;;;;;;;;;;;;;;1020346;29;1275;-18
2021/09/27 03:39:43;;;;;;;;;;;;;;;;;;1018290;29;1051;-19
2021/09/27 03:40:17;;;;;;;;;;;;;;;;;;1018312;29;1253;-20
2021/09/27 03:40:54;;;;;;;;;;;;;;;;;;1020370;28;1530;-20
2021/09/27 03:41:24;;;;;;;;;;;;;;;;;;1025735;28;1093;-19
2021/09/27 03:42:01;;;;;;;;;;;;;;;;;;1025945;28;1254;-21
2021/09/27 03:42:39;;;;;;;;;;;;;;;;;;1015021;29;1301;-18
2021/09/27 03:43:10;;;;;;;;;;;;;;;;;;1014080;29;954;-20
2021/09/27 03:43:59;;;;;;;;;;;;;;;;;;1021774;29;1440;-19
2021/09/27 03:44:52;;;;;;;;;;;;;;;;;;1021776;29;955;-19
2021/09/27 03:45:38;;;;;;;;;;;;;;;;;;1019730;29;1236;-24
2021/09/27 03:46:17;;;;;;;;;;;;;;;;;;1022652;28;2202;-19
2021/09/27 03:46:55;;;;;;;;;;;;;;;;;;1022701;28;1182;-19
2021/09/27 03:47:31;;;;;;;;;;;;;;;;;;1022767;28;945;-18
2021/09/27 03:48:12;;;;;;;;;;;;;;;;;;1034028;28;1058;-19
2021/09/27 03:49:01;;;;;;;;;;;;;;;;;;1030133;28;1103;-19
2021/09/27 03:49:39;;;;;;;;;;;;;;;;;;1029397;28;1669;-18
2021/09/27 03:50:21;;;;;;;;;;;;;;;;;;1022090;29;1237;-19
2021/09/27 03:50:55;;;;;;;;;;;;;;;;;;1029327;28;1918;-19
2021/09/27 03:51:33;;;;;;;;;;;;;;;;;;1029800;28;1033;-19
2021/09/27 03:52:09;;;;;;;;;;;;;;;;;;1029539;28;1376;-22
2021/09/27 03:52:39;;;;;;;;;;;;;;;;;;1026082;28;1051;-20
2021/09/27 03:53:13;;;;;;;;;;;;;;;;;;1026031;28;970;-18
2021/09/27 03:53:57;;;;;;;;;;;;;;;;;;1025808;28;1378;-18
2021/09/27 03:54:36;;;;;;;;;;;;;;;;;;1025831;28;1129;-19
2021/09/27 03:55:07;;;;;;;;;;;;;;;;;;1023176;28;1197;-19
2021/09/27 03:55:42;;;;;;;;;;;;;;;;;;1022883;28;1341;-19
2021/09/27 03:56:18;;;;;;;;;;;;;;;;;;1022843;28;862;-19
2021/09/27 03:56:53;;;;;;;;;;;;;;;;;;1022815;28;946;-18
2021/09/27 03:57:36;;;;;;;;;;;;;;;;;;1025431;28;1593;-19
2021/09/27 03:58:09;;;;;;;;;;;;;;;;;;1026020;28;1298;-19
2021/09/27 03:58:42;;;;;;;;;;;;;;;;;;1026126;28;1601;-19
2021/09/27 03:59:19;;;;;;;;;;;;;;;;;;1028189;28;978;-18
2021/09/27 04:00:01;;;;;;;;;;;;;;;;;;1026572;28;1159;-19
2021/09/27 04:00:48;;;;;;;;;;;;;;;;;;1037769;28;1254;-19
2021/09/27 04:01:38;;;;;;;;;;;;;;;;;;1026144;28;1122;-19
2021/09/27 04:02:23;;;;;;;;;;;;;;;;;;1024911;28;1094;-19
2021/09/27 04:02:59;;;;;;;;;;;;;;;;;;1014739;29;1599;-18
2021/09/27 04:03:33;;;;;;;;;;;;;;;;;;1029970;28;1089;-20
2021/09/27 04:04:26;;;;;;;;;;;;;;;;;;1030069;28;1226;-19
2021/09/27 04:04:56;;;;;;;;;;;;;;;;;;1030210;28;1106;-19
2021/09/27 04:05:27;;;;;;;;;;;;;;;;;;1020341;28;918;-19
2021/09/27 04:06:15;;;;;;;;;;;;;;;;;;1018842;28;1188;-19
2021/09/27 04:07:09;;;;;;;;;;;;;;;;;;1029917;28;931;-19
2021/09/27 04:07:58;;;;;;;;;;;;;;;;;;1029476;28;1807;-19
2021/09/27 04:08:47;;;;;;;;;;;;;;;;;;1026071;28;1260;-19
2021/09/27 04:09:17;;;;;;;;;;;;;;;;;;1018585;29;1689;-20
2021/09/27 04:10:03;;;;;;;;;;;;;;;;;;1018675;29;1151;-19
2021/09/27 04:10:45;;;;;;;;;;;;;;;;;;1018640;29;1088;-18
2021/09/27 04:11:23;;;;;;;;;;;;;;;;;;1018614;29;2503;-20
2021/09/27 04:11:54;;;;;;;;;;;;;;;;;;1018894;29;958;-19
2021/09/27 04:12:27;;;;;;;;;;;;;;;;;;1018703;29;1112;-19
2021/09/27 04:13:17;;;;;;;;;;;;;;;;;;1018805;29;955;-20
2021/09/27 04:14:14;;;;;;;;;;;;;;;;;;1021631;28;1679;-19
2021/09/27 04:14:51;;;;;;;;;;;;;;;;;;1021904;29;1061;-18
2021/09/27 04:15:30;;;;;;;;;;;;;;;;;;1018851;29;1158;-20
2021/09/27 04:16:13;;;;;;;;;;;;;;;;;;1014338;29;1352;-19
2021/09/27 04:16:49;;;;;;;;;;;;;;;;;;1014378;29;859;-19